sensor_id;sensor_type;location;lat;lon;timestamp;P1;durP1;ratioP1;P2;durP2;ratioP2
6614;SDS011;3343;42.896;23.912;2022-08-11T00:00:10;6.80;;;5.82;;
6614;SDS011;3343;42.896;23.912;2022-08-11T00:02:40;7.25;;;6.22;;
6614;SDS011;3343;42.896;23.912;2022-08-11T00:05:12;7.00;;;6.30;;
6614;SDS011;3343;42.896;23.912;2022-08-11T00:07:41;8.10;;;6.25;;
6614;SDS011;3343;42.896;23.912;2022-08-11T00:10:12;11.70;;;6.38;;
6614;SDS011;3343;42.896;23.912;2022-08-11T00:12:49;8.65;;;5.70;;
6614;SDS011;3343;42.896;23.912;2022-08-11T00:15:17;7.28;;;6.50;;
6614;SDS011;3343;42.896;23.912;2022-08-11T00:17:46;9.57;;;7.30;;
6614;SDS011;3343;42.896;23.912;2022-08-11T00:20:14;10.10;;;6.50;;
6614;SDS011;3343;42.896;23.912;2022-08-11T00:22:45;7.97;;;6.95;;
6614;SDS011;3343;42.896;23.912;2022-08-11T00:25:16;7.88;;;6.82;;
6614;SDS011;3343;42.896;23.912;2022-08-11T00:27:44;8.07;;;7.15;;
6614;SDS011;3343;42.896;23.912;2022-08-11T00:30:13;9.82;;;7.03;;
6614;SDS011;3343;42.896;23.912;2022-08-11T00:32:41;8.98;;;7.50;;
6614;SDS011;3343;42.896;23.912;2022-08-11T00:35:11;8.10;;;6.43;;
6614;SDS011;3343;42.896;23.912;2022-08-11T00:37:43;7.78;;;6.78;;
6614;SDS011;3343;42.896;23.912;2022-08-11T00:40:17;7.65;;;6.32;;
6614;SDS011;3343;42.896;23.912;2022-08-11T00:42:54;6.97;;;6.38;;
6614;SDS011;3343;42.896;23.912;2022-08-11T00:45:30;10.60;;;6.80;;
6614;SDS011;3343;42.896;23.912;2022-08-11T00:48:02;8.35;;;7.38;;
6614;SDS011;3343;42.896;23.912;2022-08-11T00:50:41;8.23;;;7.00;;
6614;SDS011;3343;42.896;23.912;2022-08-11T00:53:33;6.90;;;6.13;;
6614;SDS011;3343;42.896;23.912;2022-08-11T00:59:31;7.25;;;5.70;;
6614;SDS011;3343;42.896;23.912;2022-08-11T01:02:47;8.35;;;6.63;;
6614;SDS011;3343;42.896;23.912;2022-08-11T01:05:36;10.57;;;6.57;;
6614;SDS011;3343;42.896;23.912;2022-08-11T01:08:17;6.80;;;6.10;;
6614;SDS011;3343;42.896;23.912;2022-08-11T01:11:17;8.77;;;6.43;;
6614;SDS011;3343;42.896;23.912;2022-08-11T01:14:10;7.83;;;7.03;;
6614;SDS011;3343;42.896;23.912;2022-08-11T01:20:13;7.67;;;6.83;;
6614;SDS011;3343;42.896;23.912;2022-08-11T01:23:11;7.60;;;6.60;;
6614;SDS011;3343;42.896;23.912;2022-08-11T01:26:21;9.77;;;6.38;;
6614;SDS011;3343;42.896;23.912;2022-08-11T01:41:40;7.07;;;6.15;;
6614;SDS011;3343;42.896;23.912;2022-08-11T01:44:52;8.73;;;6.55;;
6614;SDS011;3343;42.896;23.912;2022-08-11T01:47:34;8.02;;;6.22;;
6614;SDS011;3343;42.896;23.912;2022-08-11T01:53:11;9.07;;;6.10;;
6614;SDS011;3343;42.896;23.912;2022-08-11T01:55:51;8.07;;;6.83;;
6614;SDS011;3343;42.896;23.912;2022-08-11T01:58:28;7.93;;;6.80;;
6614;SDS011;3343;42.896;23.912;2022-08-11T02:01:04;9.57;;;6.97;;
6614;SDS011;3343;42.896;23.912;2022-08-11T02:03:42;9.63;;;6.90;;
6614;SDS011;3343;42.896;23.912;2022-08-11T02:06:19;9.17;;;6.77;;
6614;SDS011;3343;42.896;23.912;2022-08-11T02:09:14;8.77;;;6.67;;
6614;SDS011;3343;42.896;23.912;2022-08-11T02:11:52;8.03;;;7.23;;
6614;SDS011;3343;42.896;23.912;2022-08-11T02:14:28;7.70;;;6.63;;
6614;SDS011;3343;42.896;23.912;2022-08-11T02:17:10;7.43;;;6.45;;
6614;SDS011;3343;42.896;23.912;2022-08-11T02:19:43;7.13;;;6.43;;
6614;SDS011;3343;42.896;23.912;2022-08-11T02:22:36;8.23;;;6.63;;
6614;SDS011;3343;42.896;23.912;2022-08-11T02:25:28;8.82;;;6.40;;
6614;SDS011;3343;42.896;23.912;2022-08-11T02:28:01;8.90;;;6.40;;
6614;SDS011;3343;42.896;23.912;2022-08-11T02:30:36;6.75;;;6.03;;
6614;SDS011;3343;42.896;23.912;2022-08-11T02:33:11;7.15;;;6.45;;
6614;SDS011;3343;42.896;23.912;2022-08-11T02:35:54;8.30;;;6.38;;
6614;SDS011;3343;42.896;23.912;2022-08-11T02:38:27;7.55;;;6.65;;
6614;SDS011;3343;42.896;23.912;2022-08-11T02:41:07;8.13;;;6.75;;
6614;SDS011;3343;42.896;23.912;2022-08-11T02:43:55;7.47;;;6.70;;
6614;SDS011;3343;42.896;23.912;2022-08-11T02:46:37;7.93;;;6.40;;
6614;SDS011;3343;42.896;23.912;2022-08-11T02:49:17;7.60;;;6.83;;
6614;SDS011;3343;42.896;23.912;2022-08-11T02:52:19;8.07;;;7.13;;
6614;SDS011;3343;42.896;23.912;2022-08-11T02:54:52;8.37;;;6.87;;
6614;SDS011;3343;42.896;23.912;2022-08-11T02:57:34;7.17;;;6.43;;
6614;SDS011;3343;42.896;23.912;2022-08-11T03:00:07;8.33;;;6.70;;
6614;SDS011;3343;42.896;23.912;2022-08-11T03:05:48;9.23;;;7.33;;
6614;SDS011;3343;42.896;23.912;2022-08-11T03:08:28;8.27;;;6.40;;
6614;SDS011;3343;42.896;23.912;2022-08-11T03:11:08;9.30;;;6.83;;
6614;SDS011;3343;42.896;23.912;2022-08-11T03:14:14;7.17;;;6.13;;
6614;SDS011;3343;42.896;23.912;2022-08-11T03:17:08;6.88;;;5.93;;
6614;SDS011;3343;42.896;23.912;2022-08-11T03:19:45;8.82;;;6.63;;
6614;SDS011;3343;42.896;23.912;2022-08-11T03:22:21;8.32;;;6.25;;
6614;SDS011;3343;42.896;23.912;2022-08-11T03:24:55;8.00;;;6.93;;
6614;SDS011;3343;42.896;23.912;2022-08-11T03:27:33;7.13;;;6.43;;
6614;SDS011;3343;42.896;23.912;2022-08-11T03:30:13;8.43;;;6.30;;
6614;SDS011;3343;42.896;23.912;2022-08-11T03:32:49;8.00;;;6.37;;
6614;SDS011;3343;42.896;23.912;2022-08-11T03:35:44;9.20;;;6.33;;
6614;SDS011;3343;42.896;23.912;2022-08-11T03:38:19;7.00;;;6.30;;
6614;SDS011;3343;42.896;23.912;2022-08-11T03:40:58;7.32;;;6.63;;
6614;SDS011;3343;42.896;23.912;2022-08-11T03:43:53;8.38;;;6.57;;
6614;SDS011;3343;42.896;23.912;2022-08-11T03:46:37;10.97;;;7.13;;
6614;SDS011;3343;42.896;23.912;2022-08-11T03:49:22;7.57;;;6.50;;
6614;SDS011;3343;42.896;23.912;2022-08-11T03:51:58;9.03;;;6.27;;
6614;SDS011;3343;42.896;23.912;2022-08-11T03:54:39;7.53;;;6.13;;
6614;SDS011;3343;42.896;23.912;2022-08-11T03:57:19;7.43;;;6.38;;
6614;SDS011;3343;42.896;23.912;2022-08-11T04:00:22;6.97;;;5.95;;
6614;SDS011;3343;42.896;23.912;2022-08-11T04:18:42;7.78;;;6.93;;
6614;SDS011;3343;42.896;23.912;2022-08-11T04:24:45;12.38;;;8.98;;
6614;SDS011;3343;42.896;23.912;2022-08-11T04:27:38;11.73;;;8.77;;
6614;SDS011;3343;42.896;23.912;2022-08-11T04:30:29;8.77;;;7.88;;
6614;SDS011;3343;42.896;23.912;2022-08-11T04:33:29;11.68;;;9.02;;
6614;SDS011;3343;42.896;23.912;2022-08-11T04:36:32;11.73;;;9.63;;
6614;SDS011;3343;42.896;23.912;2022-08-11T04:39:27;13.93;;;9.57;;
6614;SDS011;3343;42.896;23.912;2022-08-11T04:52:31;15.35;;;11.05;;
6614;SDS011;3343;42.896;23.912;2022-08-11T04:55:42;13.57;;;10.88;;
6614;SDS011;3343;42.896;23.912;2022-08-11T04:58:48;14.38;;;10.93;;
6614;SDS011;3343;42.896;23.912;2022-08-11T05:01:50;12.25;;;10.77;;
6614;SDS011;3343;42.896;23.912;2022-08-11T05:14:33;12.35;;;9.25;;
6614;SDS011;3343;42.896;23.912;2022-08-11T05:17:33;14.30;;;10.93;;
6614;SDS011;3343;42.896;23.912;2022-08-11T05:20:20;12.55;;;9.73;;
6614;SDS011;3343;42.896;23.912;2022-08-11T05:23:08;13.70;;;10.68;;
6614;SDS011;3343;42.896;23.912;2022-08-11T05:29:26;12.75;;;10.07;;
6614;SDS011;3343;42.896;23.912;2022-08-11T05:32:21;11.30;;;9.50;;
6614;SDS011;3343;42.896;23.912;2022-08-11T05:35:07;9.98;;;8.90;;
6614;SDS011;3343;42.896;23.912;2022-08-11T05:37:40;13.10;;;8.77;;
6614;SDS011;3343;42.896;23.912;2022-08-11T05:44:03;8.68;;;7.78;;
6614;SDS011;3343;42.896;23.912;2022-08-11T05:46:49;9.80;;;8.18;;
6614;SDS011;3343;42.896;23.912;2022-08-11T05:49:34;8.52;;;7.65;;
6614;SDS011;3343;42.896;23.912;2022-08-11T05:52:20;11.65;;;7.72;;
6614;SDS011;3343;42.896;23.912;2022-08-11T05:55:07;13.38;;;7.63;;
6614;SDS011;3343;42.896;23.912;2022-08-11T05:57:54;14.05;;;7.65;;
6614;SDS011;3343;42.896;23.912;2022-08-11T06:00:22;13.38;;;8.20;;
6614;SDS011;3343;42.896;23.912;2022-08-11T06:02:53;8.80;;;7.32;;
6614;SDS011;3343;42.896;23.912;2022-08-11T06:05:21;8.85;;;6.95;;
6614;SDS011;3343;42.896;23.912;2022-08-11T06:07:49;7.68;;;6.72;;
6614;SDS011;3343;42.896;23.912;2022-08-11T06:10:24;8.40;;;7.47;;
6614;SDS011;3343;42.896;23.912;2022-08-11T06:12:56;8.20;;;7.28;;
6614;SDS011;3343;42.896;23.912;2022-08-11T06:15:25;7.75;;;7.00;;
6614;SDS011;3343;42.896;23.912;2022-08-11T06:17:54;9.10;;;7.18;;
6614;SDS011;3343;42.896;23.912;2022-08-11T06:20:24;8.57;;;6.65;;
6614;SDS011;3343;42.896;23.912;2022-08-11T06:22:57;8.25;;;6.88;;
6614;SDS011;3343;42.896;23.912;2022-08-11T06:25:32;9.45;;;6.78;;
6614;SDS011;3343;42.896;23.912;2022-08-11T06:28:01;8.02;;;6.78;;
6614;SDS011;3343;42.896;23.912;2022-08-11T06:30:48;8.70;;;6.85;;
6614;SDS011;3343;42.896;23.912;2022-08-11T06:33:18;7.35;;;6.57;;
6614;SDS011;3343;42.896;23.912;2022-08-11T06:35:56;7.75;;;6.43;;
6614;SDS011;3343;42.896;23.912;2022-08-11T06:41:33;7.10;;;6.40;;
6614;SDS011;3343;42.896;23.912;2022-08-11T06:44:22;8.38;;;6.55;;
6614;SDS011;3343;42.896;23.912;2022-08-11T06:53:37;6.03;;;5.03;;
6614;SDS011;3343;42.896;23.912;2022-08-11T06:56:07;7.22;;;5.57;;
6614;SDS011;3343;42.896;23.912;2022-08-11T06:58:53;5.85;;;5.25;;
6614;SDS011;3343;42.896;23.912;2022-08-11T07:01:43;6.45;;;5.20;;
6614;SDS011;3343;42.896;23.912;2022-08-11T07:04:28;7.22;;;5.18;;
6614;SDS011;3343;42.896;23.912;2022-08-11T07:07:08;7.05;;;5.05;;
6614;SDS011;3343;42.896;23.912;2022-08-11T07:10:16;9.07;;;5.38;;
6614;SDS011;3343;42.896;23.912;2022-08-11T07:23:13;7.10;;;5.30;;
6614;SDS011;3343;42.896;23.912;2022-08-11T07:26:01;6.80;;;5.10;;
6614;SDS011;3343;42.896;23.912;2022-08-11T07:28:47;6.43;;;4.90;;
6614;SDS011;3343;42.896;23.912;2022-08-11T07:31:24;8.80;;;5.30;;
6614;SDS011;3343;42.896;23.912;2022-08-11T07:33:58;5.53;;;4.90;;
6614;SDS011;3343;42.896;23.912;2022-08-11T07:36:38;7.85;;;4.53;;
6614;SDS011;3343;42.896;23.912;2022-08-11T07:39:12;5.38;;;4.55;;
6614;SDS011;3343;42.896;23.912;2022-08-11T07:41:45;4.40;;;4.00;;
6614;SDS011;3343;42.896;23.912;2022-08-11T07:44:13;5.63;;;4.35;;
6614;SDS011;3343;42.896;23.912;2022-08-11T07:47:23;6.18;;;4.90;;
6614;SDS011;3343;42.896;23.912;2022-08-11T07:50:09;4.60;;;4.20;;
6614;SDS011;3343;42.896;23.912;2022-08-11T07:52:55;5.40;;;4.55;;
6614;SDS011;3343;42.896;23.912;2022-08-11T07:55:25;5.88;;;3.92;;
6614;SDS011;3343;42.896;23.912;2022-08-11T07:57:54;14.77;;;5.00;;
6614;SDS011;3343;42.896;23.912;2022-08-11T08:04:03;13.20;;;4.85;;
6614;SDS011;3343;42.896;23.912;2022-08-11T08:06:49;9.98;;;4.20;;
6614;SDS011;3343;42.896;23.912;2022-08-11T08:09:34;6.65;;;4.70;;
6614;SDS011;3343;42.896;23.912;2022-08-11T08:12:21;8.00;;;4.68;;
6614;SDS011;3343;42.896;23.912;2022-08-11T08:15:08;8.43;;;4.15;;
6614;SDS011;3343;42.896;23.912;2022-08-11T08:17:54;5.30;;;4.25;;
6614;SDS011;3343;42.896;23.912;2022-08-11T08:20:24;4.20;;;3.80;;
6614;SDS011;3343;42.896;23.912;2022-08-11T08:22:54;5.15;;;4.03;;
6614;SDS011;3343;42.896;23.912;2022-08-11T08:25:23;6.47;;;3.72;;
6614;SDS011;3343;42.896;23.912;2022-08-11T08:27:53;5.15;;;4.05;;
6614;SDS011;3343;42.896;23.912;2022-08-11T08:33:36;6.05;;;4.47;;
6614;SDS011;3343;42.896;23.912;2022-08-11T08:36:07;6.55;;;3.97;;
6614;SDS011;3343;42.896;23.912;2022-08-11T08:38:39;5.18;;;4.35;;
6614;SDS011;3343;42.896;23.912;2022-08-11T08:41:08;5.97;;;4.40;;
6614;SDS011;3343;42.896;23.912;2022-08-11T08:43:37;6.68;;;4.28;;
6614;SDS011;3343;42.896;23.912;2022-08-11T08:46:06;7.13;;;4.20;;
6614;SDS011;3343;42.896;23.912;2022-08-11T08:48:35;6.53;;;4.32;;
6614;SDS011;3343;42.896;23.912;2022-08-11T08:51:04;4.22;;;3.83;;
6614;SDS011;3343;42.896;23.912;2022-08-11T08:53:59;4.53;;;3.67;;
6614;SDS011;3343;42.896;23.912;2022-08-11T08:56:36;4.72;;;3.95;;
6614;SDS011;3343;42.896;23.912;2022-08-11T08:59:07;7.47;;;3.72;;
6614;SDS011;3343;42.896;23.912;2022-08-11T09:01:36;5.00;;;4.05;;
6614;SDS011;3343;42.896;23.912;2022-08-11T09:04:08;6.50;;;4.22;;
6614;SDS011;3343;42.896;23.912;2022-08-11T09:06:36;6.45;;;3.72;;
6614;SDS011;3343;42.896;23.912;2022-08-11T09:09:07;8.35;;;4.30;;
6614;SDS011;3343;42.896;23.912;2022-08-11T09:11:36;4.38;;;3.70;;
6614;SDS011;3343;42.896;23.912;2022-08-11T09:14:19;7.53;;;4.20;;
6614;SDS011;3343;42.896;23.912;2022-08-11T09:16:48;4.28;;;3.80;;
6614;SDS011;3343;42.896;23.912;2022-08-11T09:19:16;6.20;;;3.83;;
6614;SDS011;3343;42.896;23.912;2022-08-11T09:21:47;5.03;;;4.28;;
6614;SDS011;3343;42.896;23.912;2022-08-11T09:24:36;6.60;;;3.80;;
6614;SDS011;3343;42.896;23.912;2022-08-11T09:27:22;5.57;;;4.03;;
6614;SDS011;3343;42.896;23.912;2022-08-11T09:29:51;4.63;;;3.90;;
6614;SDS011;3343;42.896;23.912;2022-08-11T09:32:20;4.32;;;3.50;;
6614;SDS011;3343;42.896;23.912;2022-08-11T09:34:48;4.43;;;3.85;;
6614;SDS011;3343;42.896;23.912;2022-08-11T09:37:17;4.32;;;3.78;;
6614;SDS011;3343;42.896;23.912;2022-08-11T09:40:07;3.92;;;3.53;;
6614;SDS011;3343;42.896;23.912;2022-08-11T09:42:55;6.28;;;3.70;;
6614;SDS011;3343;42.896;23.912;2022-08-11T09:45:41;4.95;;;3.85;;
6614;SDS011;3343;42.896;23.912;2022-08-11T09:48:15;7.80;;;3.45;;
6614;SDS011;3343;42.896;23.912;2022-08-11T09:50:44;5.97;;;3.38;;
6614;SDS011;3343;42.896;23.912;2022-08-11T09:53:14;4.07;;;3.50;;
6614;SDS011;3343;42.896;23.912;2022-08-11T09:55:42;3.60;;;3.30;;
6614;SDS011;3343;42.896;23.912;2022-08-11T09:58:10;5.28;;;3.13;;
6614;SDS011;3343;42.896;23.912;2022-08-11T10:00:42;3.30;;;3.00;;
6614;SDS011;3343;42.896;23.912;2022-08-11T10:03:11;3.47;;;3.08;;
6614;SDS011;3343;42.896;23.912;2022-08-11T10:05:38;4.40;;;3.10;;
6614;SDS011;3343;42.896;23.912;2022-08-11T10:08:27;5.30;;;3.38;;
6614;SDS011;3343;42.896;23.912;2022-08-11T10:10:55;7.10;;;3.70;;
6614;SDS011;3343;42.896;23.912;2022-08-11T10:13:25;4.53;;;3.40;;
6614;SDS011;3343;42.896;23.912;2022-08-11T10:16:02;7.70;;;3.15;;
6614;SDS011;3343;42.896;23.912;2022-08-11T10:18:32;5.40;;;4.10;;
6614;SDS011;3343;42.896;23.912;2022-08-11T10:21:14;5.80;;;3.15;;
6614;SDS011;3343;42.896;23.912;2022-08-11T10:23:48;6.57;;;3.70;;
6614;SDS011;3343;42.896;23.912;2022-08-11T10:26:35;5.95;;;3.50;;
6614;SDS011;3343;42.896;23.912;2022-08-11T10:29:23;7.05;;;3.67;;
6614;SDS011;3343;42.896;23.912;2022-08-11T10:32:11;4.20;;;3.47;;
6614;SDS011;3343;42.896;23.912;2022-08-11T10:34:58;5.22;;;3.17;;
6614;SDS011;3343;42.896;23.912;2022-08-11T10:37:28;4.28;;;3.30;;
6614;SDS011;3343;42.896;23.912;2022-08-11T10:39:58;5.65;;;3.35;;
6614;SDS011;3343;42.896;23.912;2022-08-11T10:42:28;3.38;;;2.80;;
6614;SDS011;3343;42.896;23.912;2022-08-11T10:45:13;4.90;;;3.03;;
6614;SDS011;3343;42.896;23.912;2022-08-11T10:48:00;3.40;;;3.08;;
6614;SDS011;3343;42.896;23.912;2022-08-11T10:50:30;3.60;;;3.13;;
6614;SDS011;3343;42.896;23.912;2022-08-11T10:53:16;4.65;;;3.13;;
6614;SDS011;3343;42.896;23.912;2022-08-11T10:56:01;3.97;;;2.88;;
6614;SDS011;3343;42.896;23.912;2022-08-11T10:58:46;4.78;;;2.75;;
6614;SDS011;3343;42.896;23.912;2022-08-11T11:01:15;3.20;;;2.90;;
6614;SDS011;3343;42.896;23.912;2022-08-11T11:03:48;3.42;;;3.13;;
6614;SDS011;3343;42.896;23.912;2022-08-11T11:06:20;3.22;;;2.92;;
6614;SDS011;3343;42.896;23.912;2022-08-11T11:08:52;5.15;;;3.20;;
6614;SDS011;3343;42.896;23.912;2022-08-11T11:11:26;4.15;;;3.45;;
6614;SDS011;3343;42.896;23.912;2022-08-11T11:14:16;5.28;;;3.00;;
6614;SDS011;3343;42.896;23.912;2022-08-11T11:17:04;3.35;;;3.05;;
6614;SDS011;3343;42.896;23.912;2022-08-11T11:19:52;9.23;;;3.33;;
6614;SDS011;3343;42.896;23.912;2022-08-11T11:22:23;4.10;;;2.67;;
6614;SDS011;3343;42.896;23.912;2022-08-11T11:25:16;3.40;;;3.10;;
6614;SDS011;3343;42.896;23.912;2022-08-11T11:27:51;4.13;;;2.95;;
6614;SDS011;3343;42.896;23.912;2022-08-11T11:30:26;8.63;;;4.40;;
6614;SDS011;3343;42.896;23.912;2022-08-11T11:33:03;5.63;;;2.92;;
6614;SDS011;3343;42.896;23.912;2022-08-11T11:35:38;6.22;;;2.95;;
6614;SDS011;3343;42.896;23.912;2022-08-11T11:38:14;6.50;;;3.13;;
6614;SDS011;3343;42.896;23.912;2022-08-11T11:40:43;3.15;;;2.85;;
6614;SDS011;3343;42.896;23.912;2022-08-11T11:43:31;4.55;;;3.00;;
6614;SDS011;3343;42.896;23.912;2022-08-11T11:46:01;3.45;;;2.78;;
6614;SDS011;3343;42.896;23.912;2022-08-11T11:48:28;5.80;;;3.13;;
6614;SDS011;3343;42.896;23.912;2022-08-11T11:50:58;5.28;;;2.60;;
6614;SDS011;3343;42.896;23.912;2022-08-11T11:53:25;3.75;;;3.03;;
6614;SDS011;3343;42.896;23.912;2022-08-11T11:55:53;5.90;;;2.72;;
6614;SDS011;3343;42.896;23.912;2022-08-11T11:58:21;3.10;;;2.75;;
6614;SDS011;3343;42.896;23.912;2022-08-11T12:01:06;6.47;;;2.78;;
6614;SDS011;3343;42.896;23.912;2022-08-11T12:03:44;5.47;;;2.92;;
6614;SDS011;3343;42.896;23.912;2022-08-11T12:06:14;2.75;;;2.30;;
6614;SDS011;3343;42.896;23.912;2022-08-11T12:08:44;3.33;;;2.53;;
6614;SDS011;3343;42.896;23.912;2022-08-11T12:11:15;3.67;;;2.65;;
6614;SDS011;3343;42.896;23.912;2022-08-11T12:14:02;2.78;;;2.58;;
6614;SDS011;3343;42.896;23.912;2022-08-11T12:16:31;4.38;;;2.65;;
6614;SDS011;3343;42.896;23.912;2022-08-11T12:19:02;3.58;;;2.40;;
6614;SDS011;3343;42.896;23.912;2022-08-11T12:21:32;4.13;;;2.83;;
6614;SDS011;3343;42.896;23.912;2022-08-11T12:24:00;6.13;;;2.80;;
6614;SDS011;3343;42.896;23.912;2022-08-11T12:26:45;6.82;;;2.80;;
6614;SDS011;3343;42.896;23.912;2022-08-11T12:29:31;3.95;;;2.92;;
6614;SDS011;3343;42.896;23.912;2022-08-11T12:31:59;3.30;;;2.45;;
6614;SDS011;3343;42.896;23.912;2022-08-11T12:34:26;4.47;;;2.88;;
6614;SDS011;3343;42.896;23.912;2022-08-11T12:36:56;5.07;;;2.78;;
6614;SDS011;3343;42.896;23.912;2022-08-11T12:39:26;5.93;;;2.92;;
6614;SDS011;3343;42.896;23.912;2022-08-11T12:42:16;4.25;;;3.40;;
6614;SDS011;3343;42.896;23.912;2022-08-11T12:45:02;4.05;;;3.15;;
6614;SDS011;3343;42.896;23.912;2022-08-11T12:47:50;6.00;;;3.33;;
6614;SDS011;3343;42.896;23.912;2022-08-11T12:50:36;4.38;;;2.92;;
6614;SDS011;3343;42.896;23.912;2022-08-11T12:53:24;3.15;;;2.75;;
6614;SDS011;3343;42.896;23.912;2022-08-11T12:55:53;5.78;;;2.92;;
6614;SDS011;3343;42.896;23.912;2022-08-11T12:58:40;3.78;;;3.20;;
6614;SDS011;3343;42.896;23.912;2022-08-11T13:01:08;3.47;;;2.95;;
6614;SDS011;3343;42.896;23.912;2022-08-11T13:03:53;6.03;;;3.20;;
6614;SDS011;3343;42.896;23.912;2022-08-11T13:06:38;4.80;;;2.83;;
6614;SDS011;3343;42.896;23.912;2022-08-11T13:09:09;6.72;;;3.22;;
6614;SDS011;3343;42.896;23.912;2022-08-11T13:11:37;6.07;;;2.95;;
6614;SDS011;3343;42.896;23.912;2022-08-11T13:14:24;5.25;;;2.33;;
6614;SDS011;3343;42.896;23.912;2022-08-11T13:16:51;3.13;;;2.28;;
6614;SDS011;3343;42.896;23.912;2022-08-11T13:19:35;3.60;;;2.70;;
6614;SDS011;3343;42.896;23.912;2022-08-11T13:22:03;2.70;;;2.50;;
6614;SDS011;3343;42.896;23.912;2022-08-11T13:24:33;3.10;;;2.78;;
6614;SDS011;3343;42.896;23.912;2022-08-11T13:27:01;3.33;;;2.80;;
6614;SDS011;3343;42.896;23.912;2022-08-11T13:29:28;3.88;;;2.90;;
6614;SDS011;3343;42.896;23.912;2022-08-11T13:31:56;3.10;;;2.80;;
6614;SDS011;3343;42.896;23.912;2022-08-11T13:34:25;4.60;;;2.63;;
6614;SDS011;3343;42.896;23.912;2022-08-11T13:36:56;3.22;;;2.80;;
6614;SDS011;3343;42.896;23.912;2022-08-11T13:39:26;3.17;;;2.78;;
6614;SDS011;3343;42.896;23.912;2022-08-11T13:41:57;3.15;;;2.35;;
6614;SDS011;3343;42.896;23.912;2022-08-11T13:44:26;4.00;;;3.00;;
6614;SDS011;3343;42.896;23.912;2022-08-11T13:46:55;3.45;;;2.90;;
6614;SDS011;3343;42.896;23.912;2022-08-11T13:49:25;3.35;;;2.53;;
6614;SDS011;3343;42.896;23.912;2022-08-11T13:51:53;4.63;;;2.92;;
6614;SDS011;3343;42.896;23.912;2022-08-11T13:54:21;5.60;;;2.50;;
6614;SDS011;3343;42.896;23.912;2022-08-11T13:56:52;4.03;;;2.90;;
6614;SDS011;3343;42.896;23.912;2022-08-11T13:59:22;3.80;;;3.15;;
6614;SDS011;3343;42.896;23.912;2022-08-11T14:01:51;2.90;;;2.60;;
6614;SDS011;3343;42.896;23.912;2022-08-11T14:04:22;2.70;;;2.50;;
6614;SDS011;3343;42.896;23.912;2022-08-11T14:06:53;3.58;;;2.58;;
6614;SDS011;3343;42.896;23.912;2022-08-11T14:09:25;2.60;;;2.40;;
6614;SDS011;3343;42.896;23.912;2022-08-11T14:11:55;3.47;;;2.72;;
6614;SDS011;3343;42.896;23.912;2022-08-11T14:14:45;3.25;;;2.58;;
6614;SDS011;3343;42.896;23.912;2022-08-11T14:17:15;3.00;;;2.70;;
6614;SDS011;3343;42.896;23.912;2022-08-11T14:19:44;12.32;;;3.17;;
6614;SDS011;3343;42.896;23.912;2022-08-11T14:22:16;3.47;;;2.67;;
6614;SDS011;3343;42.896;23.912;2022-08-11T14:24:43;6.30;;;2.88;;
6614;SDS011;3343;42.896;23.912;2022-08-11T14:27:14;3.35;;;2.60;;
6614;SDS011;3343;42.896;23.912;2022-08-11T14:29:44;2.88;;;2.50;;
6614;SDS011;3343;42.896;23.912;2022-08-11T14:32:12;3.53;;;3.00;;
6614;SDS011;3343;42.896;23.912;2022-08-11T14:34:42;2.58;;;2.38;;
6614;SDS011;3343;42.896;23.912;2022-08-11T14:37:11;4.65;;;2.95;;
6614;SDS011;3343;42.896;23.912;2022-08-11T14:39:40;4.90;;;3.40;;
6614;SDS011;3343;42.896;23.912;2022-08-11T14:42:11;10.25;;;2.80;;
6614;SDS011;3343;42.896;23.912;2022-08-11T14:44:59;3.83;;;2.47;;
6614;SDS011;3343;42.896;23.912;2022-08-11T14:48:01;4.18;;;2.50;;
6614;SDS011;3343;42.896;23.912;2022-08-11T14:50:31;2.95;;;2.72;;
6614;SDS011;3343;42.896;23.912;2022-08-11T14:53:00;3.65;;;2.60;;
6614;SDS011;3343;42.896;23.912;2022-08-11T14:55:30;2.95;;;2.65;;
6614;SDS011;3343;42.896;23.912;2022-08-11T14:58:19;7.07;;;2.80;;
6614;SDS011;3343;42.896;23.912;2022-08-11T15:00:50;4.90;;;2.83;;
6614;SDS011;3343;42.896;23.912;2022-08-11T15:03:20;3.25;;;2.65;;
6614;SDS011;3343;42.896;23.912;2022-08-11T15:05:48;2.60;;;2.40;;
6614;SDS011;3343;42.896;23.912;2022-08-11T15:08:17;6.55;;;2.90;;
6614;SDS011;3343;42.896;23.912;2022-08-11T15:10:46;3.25;;;2.70;;
6614;SDS011;3343;42.896;23.912;2022-08-11T15:13:15;2.50;;;2.30;;
6614;SDS011;3343;42.896;23.912;2022-08-11T15:15:44;3.05;;;2.80;;
6614;SDS011;3343;42.896;23.912;2022-08-11T15:18:31;2.60;;;2.40;;
6614;SDS011;3343;42.896;23.912;2022-08-11T15:21:00;2.63;;;2.42;;
6614;SDS011;3343;42.896;23.912;2022-08-11T15:23:45;3.65;;;2.55;;
6614;SDS011;3343;42.896;23.912;2022-08-11T15:26:30;5.38;;;2.60;;
6614;SDS011;3343;42.896;23.912;2022-08-11T15:29:19;5.75;;;2.65;;
6614;SDS011;3343;42.896;23.912;2022-08-11T15:32:06;3.80;;;2.70;;
6614;SDS011;3343;42.896;23.912;2022-08-11T15:34:57;4.25;;;2.80;;
6614;SDS011;3343;42.896;23.912;2022-08-11T15:37:43;3.75;;;2.63;;
6614;SDS011;3343;42.896;23.912;2022-08-11T15:40:16;3.33;;;2.97;;
6614;SDS011;3343;42.896;23.912;2022-08-11T15:43:06;4.93;;;2.72;;
6614;SDS011;3343;42.896;23.912;2022-08-11T15:45:54;4.78;;;2.97;;
6614;SDS011;3343;42.896;23.912;2022-08-11T15:48:28;5.53;;;3.03;;
6614;SDS011;3343;42.896;23.912;2022-08-11T15:51:06;4.55;;;3.00;;
6614;SDS011;3343;42.896;23.912;2022-08-11T15:53:40;4.57;;;2.58;;
6614;SDS011;3343;42.896;23.912;2022-08-11T15:56:08;4.85;;;3.15;;
6614;SDS011;3343;42.896;23.912;2022-08-11T15:58:44;5.50;;;2.50;;
6614;SDS011;3343;42.896;23.912;2022-08-11T16:01:30;4.35;;;2.67;;
6614;SDS011;3343;42.896;23.912;2022-08-11T16:04:20;2.92;;;2.60;;
6614;SDS011;3343;42.896;23.912;2022-08-11T16:06:53;3.72;;;2.88;;
6614;SDS011;3343;42.896;23.912;2022-08-11T16:09:26;4.13;;;3.17;;
6614;SDS011;3343;42.896;23.912;2022-08-11T16:11:58;3.65;;;2.92;;
6614;SDS011;3343;42.896;23.912;2022-08-11T16:14:28;4.13;;;2.88;;
6614;SDS011;3343;42.896;23.912;2022-08-11T16:17:12;4.95;;;3.00;;
6614;SDS011;3343;42.896;23.912;2022-08-11T16:19:41;5.25;;;2.53;;
6614;SDS011;3343;42.896;23.912;2022-08-11T16:22:11;3.17;;;2.70;;
6614;SDS011;3343;42.896;23.912;2022-08-11T16:24:44;5.50;;;2.83;;
6614;SDS011;3343;42.896;23.912;2022-08-11T16:27:14;4.60;;;3.05;;
6614;SDS011;3343;42.896;23.912;2022-08-11T16:29:44;4.63;;;2.92;;
6614;SDS011;3343;42.896;23.912;2022-08-11T16:32:14;3.28;;;2.95;;
6614;SDS011;3343;42.896;23.912;2022-08-11T16:34:46;2.95;;;2.65;;
6614;SDS011;3343;42.896;23.912;2022-08-11T16:37:38;2.65;;;2.45;;
6614;SDS011;3343;42.896;23.912;2022-08-11T16:40:24;4.90;;;2.85;;
6614;SDS011;3343;42.896;23.912;2022-08-11T16:42:53;4.05;;;2.67;;
6614;SDS011;3343;42.896;23.912;2022-08-11T16:45:35;3.22;;;2.67;;
6614;SDS011;3343;42.896;23.912;2022-08-11T16:48:22;4.57;;;3.13;;
6614;SDS011;3343;42.896;23.912;2022-08-11T16:50:53;4.85;;;3.17;;
6614;SDS011;3343;42.896;23.912;2022-08-11T16:53:22;5.30;;;3.30;;
6614;SDS011;3343;42.896;23.912;2022-08-11T16:55:49;4.82;;;3.15;;
6614;SDS011;3343;42.896;23.912;2022-08-11T16:58:19;6.28;;;2.95;;
6614;SDS011;3343;42.896;23.912;2022-08-11T17:01:06;3.13;;;2.80;;
6614;SDS011;3343;42.896;23.912;2022-08-11T17:03:35;3.58;;;3.13;;
6614;SDS011;3343;42.896;23.912;2022-08-11T17:06:28;5.57;;;3.17;;
6614;SDS011;3343;42.896;23.912;2022-08-11T17:09:16;5.35;;;3.38;;
6614;SDS011;3343;42.896;23.912;2022-08-11T17:12:06;3.25;;;2.95;;
6614;SDS011;3343;42.896;23.912;2022-08-11T17:14:54;4.60;;;2.83;;
6614;SDS011;3343;42.896;23.912;2022-08-11T17:17:25;4.13;;;2.90;;
6614;SDS011;3343;42.896;23.912;2022-08-11T17:19:56;3.78;;;2.80;;
6614;SDS011;3343;42.896;23.912;2022-08-11T17:22:27;3.15;;;2.70;;
6614;SDS011;3343;42.896;23.912;2022-08-11T17:25:10;4.50;;;3.03;;
6614;SDS011;3343;42.896;23.912;2022-08-11T17:27:38;4.00;;;2.95;;
6614;SDS011;3343;42.896;23.912;2022-08-11T17:30:10;3.15;;;2.85;;
6614;SDS011;3343;42.896;23.912;2022-08-11T17:32:39;4.07;;;3.00;;
6614;SDS011;3343;42.896;23.912;2022-08-11T17:35:29;4.90;;;3.40;;
6614;SDS011;3343;42.896;23.912;2022-08-11T17:38:00;4.55;;;3.13;;
6614;SDS011;3343;42.896;23.912;2022-08-11T17:40:33;6.18;;;3.28;;
6614;SDS011;3343;42.896;23.912;2022-08-11T17:43:03;3.22;;;2.92;;